Time;durP1;ratioP1;P1;durP2;ratioP2;P2;SDS_P1;SDS_P2;PMS_P1;PMS_P2;Temp;Humidity;BMP_temperature;BMP_pressure;BME280_temperature;BME280_humidity;BME280_pressure;Samples;Min_cycle;Max_cycle;Signal;HPM_P1;HPM_P2
2022/08/09 00:02:07;;;;;;;7.55;4.38;;;15.00;99.90;;;;;;5054219;28;20045;-44
2022/08/09 00:04:33;;;;;;;8.88;4.20;;;15.00;99.90;;;;;;5053793;28;20505;-44
2022/08/09 00:07:00;;;;;;;4.85;4.38;;;15.00;99.90;;;;;;5054292;28;20041;-46
2022/08/09 00:09:25;;;;;;;5.32;4.63;;;15.00;99.90;;;;;;5053666;28;20107;-49
2022/08/09 00:11:51;;;;;;;6.60;4.55;;;14.90;99.90;;;;;;5053747;28;20041;-45
2022/08/09 00:14:17;;;;;;;7.32;4.28;;;14.90;99.90;;;;;;5053796;28;20045;-45
2022/08/09 00:16:43;;;;;;;6.38;5.30;;;15.00;99.90;;;;;;5053962;28;20449;-46
2022/08/09 00:19:09;;;;;;;6.28;4.18;;;15.00;99.90;;;;;;5053937;28;20049;-46
2022/08/09 00:21:36;;;;;;;6.93;4.70;;;14.80;99.90;;;;;;5053870;28;20037;-46
2022/08/09 00:24:01;;;;;;;5.43;4.32;;;14.80;99.90;;;;;;5053663;28;20099;-45
2022/08/09 00:26:28;;;;;;;5.25;4.75;;;14.80;99.90;;;;;;5053483;28;20049;-45
2022/08/09 00:28:53;;;;;;;7.47;5.15;;;14.70;99.90;;;;;;5053386;28;20437;-45
2022/08/09 00:31:20;;;;;;;6.60;5.25;;;14.70;99.90;;;;;;5053631;28;20041;-45
2022/08/09 00:33:46;;;;;;;7.47;4.93;;;14.70;99.90;;;;;;5053623;28;20041;-44
2022/08/09 00:36:12;;;;;;;6.80;5.45;;;14.60;99.90;;;;;;5053428;28;20041;-46
2022/08/09 00:38:38;;;;;;;8.95;4.88;;;14.60;99.90;;;;;;5053372;28;20044;-45
2022/08/09 00:41:04;;;;;;;6.25;5.40;;;14.60;99.90;;;;;;5053228;28;20048;-44
2022/08/09 00:43:30;;;;;;;9.55;5.40;;;14.60;99.90;;;;;;5053225;28;20045;-46
2022/08/09 00:45:56;;;;;;;6.57;5.40;;;14.60;99.90;;;;;;5053407;28;20043;-45
2022/08/09 00:48:22;;;;;;;5.55;5.05;;;14.50;99.90;;;;;;5053322;28;20135;-45
2022/08/09 00:50:48;;;;;;;8.25;5.30;;;14.50;99.90;;;;;;5052985;28;20152;-46
2022/08/09 00:53:14;;;;;;;7.43;5.40;;;14.50;99.90;;;;;;5053196;28;20075;-46
2022/08/09 00:55:40;;;;;;;7.20;5.90;;;14.50;99.90;;;;;;5053093;28;20453;-46
2022/08/09 00:58:06;;;;;;;7.07;5.80;;;14.40;99.90;;;;;;5053121;28;20032;-46
2022/08/09 01:00:33;;;;;;;9.93;5.40;;;14.40;99.90;;;;;;5053126;28;20082;-50
2022/08/09 01:03:13;;;;;;;7.77;5.47;;;14.40;99.90;;;;;;5053326;28;20462;-47
2022/08/09 01:05:42;;;;;;;7.47;5.78;;;14.40;99.90;;;;;;5052994;28;20374;-49
2022/08/09 01:08:18;;;;;;;7.63;5.75;;;14.40;99.90;;;;;;5052984;28;20077;-46
2022/08/09 01:10:55;;;;;;;8.95;5.97;;;14.40;99.90;;;;;;5052765;28;20056;-46
2022/08/09 01:13:23;;;;;;;6.90;5.80;;;14.30;99.90;;;;;;5053033;28;20116;-46
2022/08/09 01:15:53;;;;;;;7.22;6.13;;;14.30;99.90;;;;;;5052854;28;20138;-46
2022/08/09 01:18:23;;;;;;;6.90;6.20;;;14.30;99.90;;;;;;5052751;28;20051;-48
2022/08/09 01:21:03;;;;;;;7.18;6.38;;;14.20;99.90;;;;;;5052127;28;20380;-46
2022/08/09 01:23:56;;;;;;;6.82;6.05;;;14.20;99.90;;;;;;5052996;28;20090;-48
2022/08/09 01:26:36;;;;;;;10.65;7.00;;;14.20;99.90;;;;;;5052670;28;20124;-47
2022/08/09 01:29:05;;;;;;;7.38;5.88;;;14.20;99.90;;;;;;5052887;28;20045;-46
2022/08/09 01:31:34;;;;;;;10.27;7.03;;;14.10;99.90;;;;;;5052611;28;20047;-47
2022/08/09 01:34:03;;;;;;;8.10;6.50;;;14.10;99.90;;;;;;5034761;28;20041;-47
2022/08/09 01:36:30;;;;;;;7.88;7.07;;;14.10;99.90;;;;;;5052687;28;20048;-48
2022/08/09 01:38:57;;;;;;;9.05;6.70;;;14.00;99.90;;;;;;5052617;28;20099;-49
2022/08/09 01:41:27;;;;;;;9.23;7.07;;;14.00;99.90;;;;;;5052562;28;20055;-46
2022/08/09 01:43:59;;;;;;;7.63;6.93;;;14.00;99.90;;;;;;5052554;28;20045;-45
2022/08/09 01:46:31;;;;;;;7.45;6.68;;;14.00;99.90;;;;;;5052714;28;20077;-49
2022/08/09 01:49:04;;;;;;;7.85;6.90;;;14.00;99.90;;;;;;5052756;28;20041;-46
2022/08/09 01:51:33;;;;;;;9.88;7.32;;;14.00;99.90;;;;;;5052289;28;20078;-49
2022/08/09 01:54:01;;;;;;;11.07;7.97;;;13.90;99.90;;;;;;5052637;28;20043;-45
2022/08/09 01:56:29;;;;;;;11.63;7.82;;;14.00;99.90;;;;;;5052595;28;20045;-47
2022/08/09 01:58:57;;;;;;;9.27;6.80;;;13.90;99.90;;;;;;5052677;28;20056;-46
2022/08/09 02:01:25;;;;;;;7.38;6.63;;;13.90;99.90;;;;;;5052497;28;20052;-45
2022/08/09 02:03:52;;;;;;;;;;;13.90;99.90;;;;;;5052956;28;20037;-45
2022/08/09 02:07:07;;;;;;;7.60;6.38;;;13.80;99.90;;;;;;5052210;28;20370;-45
2022/08/09 02:09:05;;;;;;;9.93;7.40;;;13.80;99.90;;;;;;5052067;28;20056;-48
2022/08/09 02:11:31;;;;;;;9.55;7.38;;;13.80;99.90;;;;;;5052301;28;20503;-46
2022/08/09 02:13:58;;;;;;;9.63;8.07;;;13.80;99.90;;;;;;5052410;28;20041;-47
2022/08/09 02:16:24;;;;;;;10.38;7.82;;;13.80;99.90;;;;;;5035017;28;20049;-47
2022/08/09 02:18:50;;;;;;;8.82;7.07;;;13.70;99.90;;;;;;5052305;28;20384;-48
2022/08/09 02:21:20;;;;;;;7.40;6.80;;;13.70;99.90;;;;;;5052179;28;20490;-49
2022/08/09 02:23:52;;;;;;;11.82;7.97;;;13.70;99.90;;;;;;5034317;28;20045;-45
2022/08/09 02:26:19;;;;;;;8.57;7.35;;;13.70;99.90;;;;;;5052299;28;20045;-47
2022/08/09 02:28:52;;;;;;;12.65;7.88;;;13.70;99.90;;;;;;5052279;28;20120;-48
2022/08/09 02:31:25;;;;;;;9.40;8.15;;;13.70;99.90;;;;;;5052868;28;20040;-47
2022/08/09 02:33:55;;;;;;;9.82;8.00;;;13.70;99.90;;;;;;5055652;28;20068;-47
2022/08/09 02:36:32;;;;;;;10.10;7.90;;;13.70;99.90;;;;;;5055603;28;20554;-47
2022/08/09 02:39:02;;;;;;;8.68;7.45;;;13.60;99.90;;;;;;5065642;22;20372;-47
2022/08/09 02:41:43;;;;;;;11.07;8.38;;;13.60;99.90;;;;;;5103634;22;20574;-45
2022/08/09 02:44:15;;;;;;;8.95;8.05;;;13.60;99.90;;;;;;5081872;28;20032;-45
2022/08/09 02:46:44;;;;;;;9.13;7.10;;;13.60;99.90;;;;;;5095385;28;20127;-46
2022/08/09 02:49:13;;;;;;;10.73;8.38;;;13.60;99.90;;;;;;5082447;28;20106;-46
2022/08/09 02:51:42;;;;;;;9.57;7.95;;;13.60;99.90;;;;;;5075146;28;20048;-44
2022/08/09 02:54:13;;;;;;;10.32;7.95;;;13.50;99.90;;;;;;5074899;28;20482;-48
2022/08/09 02:56:41;;;;;;;11.13;8.05;;;13.50;99.90;;;;;;5079070;28;20124;-46
2022/08/09 02:59:09;;;;;;;9.63;7.70;;;13.50;99.90;;;;;;5095263;28;20464;-49
2022/08/09 03:01:39;;;;;;;10.55;8.50;;;13.50;99.90;;;;;;5095061;28;20444;-48
2022/08/09 03:04:07;;;;;;;9.13;7.95;;;13.40;99.90;;;;;;5094961;28;20131;-50
2022/08/09 03:06:34;;;;;;;11.80;8.40;;;13.40;99.90;;;;;;5095085;28;20055;-49
2022/08/09 03:09:01;;;;;;;9.45;7.93;;;13.40;99.90;;;;;;5095088;28;20390;-45
2022/08/09 03:11:29;;;;;;;11.10;7.97;;;13.40;99.90;;;;;;5094745;28;20500;-46
2022/08/09 03:13:55;;;;;;;10.18;9.07;;;13.40;99.90;;;;;;5089178;28;20040;-46
2022/08/09 03:16:23;;;;;;;9.50;8.60;;;13.40;99.90;;;;;;5074596;28;20097;-46
2022/08/09 03:18:49;;;;;;;11.30;9.10;;;13.40;99.90;;;;;;5074651;28;20040;-47
2022/08/09 03:21:17;;;;;;;11.10;8.27;;;13.40;99.90;;;;;;5074619;28;20496;-50
2022/08/09 03:23:45;;;;;;;10.00;8.98;;;13.30;99.90;;;;;;5074514;28;20119;-48
2022/08/09 03:26:15;;;;;;;10.43;9.40;;;13.30;99.90;;;;;;5074239;28;20097;-46
2022/08/09 03:28:43;;;;;;;10.88;9.13;;;13.30;99.90;;;;;;5074518;28;20493;-46
2022/08/09 03:31:09;;;;;;;11.35;8.63;;;13.30;99.90;;;;;;5074323;28;20083;-46
2022/08/09 03:33:36;;;;;;;9.85;8.85;;;13.30;99.90;;;;;;5074248;28;20075;-47
2022/08/09 03:36:02;;;;;;;10.87;9.23;;;13.30;99.90;;;;;;5074286;28;20517;-48
2022/08/09 03:38:28;;;;;;;11.70;9.55;;;13.30;99.90;;;;;;5074094;28;20145;-45
2022/08/09 03:40:54;;;;;;;11.93;8.65;;;13.30;99.90;;;;;;5073789;28;20087;-45
2022/08/09 03:43:20;;;;;;;10.27;9.18;;;13.20;99.90;;;;;;5073322;28;20044;-48
2022/08/09 03:45:45;;;;;;;11.10;8.52;;;13.20;99.90;;;;;;5074099;28;20051;-46
2022/08/09 03:48:11;;;;;;;11.63;8.63;;;13.20;99.90;;;;;;5080930;28;20044;-49
2022/08/09 03:50:39;;;;;;;12.63;8.48;;;13.20;99.90;;;;;;5094180;28;20040;-46
2022/08/09 03:53:08;;;;;;;11.70;8.75;;;13.20;99.90;;;;;;5094116;28;20048;-46
2022/08/09 03:55:34;;;;;;;10.35;9.15;;;13.20;99.90;;;;;;5094282;28;20103;-44
2022/08/09 03:58:00;;;;;;;9.48;8.57;;;13.20;99.90;;;;;;5094089;28;20119;-47
2022/08/09 04:00:26;;;;;;;10.57;9.20;;;13.20;99.90;;;;;;5094067;28;20044;-47
2022/08/09 04:02:54;;;;;;;10.10;8.55;;;13.20;99.90;;;;;;5094407;28;20067;-48
2022/08/09 04:05:20;;;;;;;11.50;9.65;;;13.20;99.90;;;;;;5093922;28;20048;-47
2022/08/09 04:07:46;;;;;;;14.30;9.50;;;13.10;99.90;;;;;;5093711;28;20040;-48
2022/08/09 04:10:13;;;;;;;11.70;9.35;;;13.20;99.90;;;;;;5093973;28;20054;-48
2022/08/09 04:12:59;;;;;;;11.75;9.20;;;13.20;99.90;;;;;;5093660;28;20032;-47
2022/08/09 04:15:25;;;;;;;14.52;9.27;;;13.20;99.90;;;;;;5093905;28;20040;-50
2022/08/09 04:17:50;;;;;;;11.50;9.55;;;13.20;99.90;;;;;;5093699;28;20063;-48
2022/08/09 04:20:17;;;;;;;11.05;9.20;;;13.20;99.90;;;;;;5093609;28;20114;-47
2022/08/09 04:22:44;;;;;;;14.35;10.23;;;13.30;99.90;;;;;;5093728;28;20036;-46
2022/08/09 04:25:11;;;;;;;10.63;9.10;;;13.30;99.90;;;;;;5093550;28;20154;-45
2022/08/09 04:27:40;;;;;;;9.88;8.90;;;13.30;99.90;;;;;;5093584;28;20040;-46
2022/08/09 04:30:11;;;;;;;12.43;9.75;;;13.30;99.90;;;;;;5093479;28;20076;-47
2022/08/09 04:32:37;;;;;;;11.45;9.32;;;13.30;99.90;;;;;;5093500;28;20089;-47
2022/08/09 04:35:07;;;;;;;11.32;9.15;;;13.30;99.90;;;;;;5093628;28;20089;-49
2022/08/09 04:37:32;;;;;;;13.15;9.60;;;13.30;99.90;;;;;;5093690;28;20044;-47
2022/08/09 04:39:58;;;;;;;10.25;9.13;;;13.40;99.90;;;;;;5093105;28;20547;-47
2022/08/09 04:42:28;;;;;;;12.18;8.50;;;13.40;99.90;;;;;;5093481;28;20497;-46
2022/08/09 04:44:57;;;;;;;12.43;9.27;;;13.40;99.90;;;;;;5093163;28;20048;-49
2022/08/09 04:47:24;;;;;;;11.52;8.98;;;13.40;99.90;;;;;;5093522;28;20032;-49
2022/08/09 04:49:50;;;;;;;11.07;9.60;;;13.50;99.90;;;;;;5093183;28;20057;-47
2022/08/09 04:52:16;;;;;;;12.25;10.10;;;13.50;99.90;;;;;;5093019;28;20277;-48
2022/08/09 04:54:41;;;;;;;12.05;10.25;;;14.30;99.90;;;;;;5092974;28;20040;-46
2022/08/09 04:57:07;;;;;;;11.32;9.55;;;15.20;99.90;;;;;;5093332;28;20403;-48
2022/08/09 04:59:33;;;;;;;10.75;8.68;;;16.10;99.90;;;;;;5092864;28;20033;-45
2022/08/09 05:01:58;;;;;;;9.93;8.88;;;16.90;99.90;;;;;;5092695;28;20417;-47
2022/08/09 05:04:24;;;;;;;9.07;8.18;;;17.50;99.90;;;;;;5093006;28;20486;-50
2022/08/09 05:06:50;;;;;;;9.02;7.22;;;18.20;99.90;;;;;;5092845;28;20044;-47
2022/08/09 05:09:15;;;;;;;9.50;6.85;;;18.60;99.90;;;;;;5092842;28;20040;-48
2022/08/09 05:11:41;;;;;;;8.68;7.45;;;19.40;99.90;;;;;;5092884;28;20040;-49
2022/08/09 05:14:07;;;;;;;7.65;6.75;;;19.80;99.90;;;;;;5092773;28;20119;-46
2022/08/09 05:16:33;;;;;;;7.10;6.22;;;19.50;99.90;;;;;;5092579;28;20458;-49
2022/08/09 05:18:59;;;;;;;6.88;6.28;;;19.00;99.90;;;;;;5092786;28;20143;-46
2022/08/09 05:21:27;;;;;;;7.95;6.50;;;17.80;99.90;;;;;;5092926;28;20222;-45
2022/08/09 05:23:53;;;;;;;7.65;6.13;;;17.90;99.90;;;;;;5092620;28;20083;-50
2022/08/09 05:26:22;;;;;;;8.95;5.95;;;;;;;;;;5092333;28;20505;-47
2022/08/09 05:28:48;;;;;;;6.85;6.15;;;16.90;99.90;;;;;;5092542;28;20036;-47
2022/08/09 05:31:13;;;;;;;7.40;5.50;;;17.20;99.90;;;;;;5092692;28;20044;-46
2022/08/09 05:33:39;;;;;;;6.90;5.80;;;18.10;99.90;;;;;;5092719;28;20047;-47
2022/08/09 05:36:05;;;;;;;7.15;5.55;;;18.90;99.90;;;;;;5092636;28;20040;-46
2022/08/09 05:38:31;;;;;;;6.93;5.80;;;19.70;99.90;;;;;;5092289;28;20040;-45
2022/08/09 05:40:57;;;;;;;6.45;5.85;;;20.70;99.90;;;;;;5092104;28;20102;-48
2022/08/09 05:43:23;;;;;;;6.80;5.63;;;20.80;99.90;;;;;;5092219;28;20045;-49
2022/08/09 05:45:49;;;;;;;8.70;5.70;;;20.90;99.90;;;;;;5092396;28;20040;-45
2022/08/09 05:48:14;;;;;;;7.20;5.25;;;21.50;99.90;;;;;;5092419;28;20401;-45
2022/08/09 05:50:42;;;;;;;5.55;4.60;;;21.50;99.90;;;;;;5092188;28;20036;-45
2022/08/09 05:53:10;;;;;;;4.95;4.43;;;21.90;99.90;;;;;;5092289;28;20169;-48
2022/08/09 05:55:35;;;;;;;4.70;4.28;;;22.40;99.90;;;;;;5092299;28;20062;-49
2022/08/09 05:58:01;;;;;;;4.43;4.03;;;22.70;99.90;;;;;;5092145;28;20044;-45
2022/08/09 06:00:29;;;;;;;7.00;4.07;;;22.80;99.90;;;;;;5092043;28;20115;-50
2022/08/09 06:02:56;;;;;;;4.80;4.10;;;23.30;99.90;;;;;;5092468;28;20036;-50
2022/08/09 06:05:23;;;;;;;4.97;4.07;;;23.30;99.90;;;;;;5091776;28;20040;-45
2022/08/09 06:07:49;;;;;;;4.43;4.00;;;24.00;99.90;;;;;;5095326;28;20048;-47
2022/08/09 06:10:15;;;;;;;4.15;3.75;;;24.30;99.90;;;;;;5095816;28;20067;-46
2022/08/09 06:12:41;;;;;;;4.57;3.80;;;23.90;99.90;;;;;;5095696;28;20122;-47
2022/08/09 06:15:07;;;;;;;4.95;4.07;;;24.30;99.90;;;;;;5095845;28;20051;-47
2022/08/09 06:17:33;;;;;;;5.93;4.60;;;24.50;99.90;;;;;;5095761;28;20048;-49
2022/08/09 06:19:58;;;;;;;6.55;4.78;;;24.90;99.90;;;;;;5095607;28;20036;-46
2022/08/09 06:22:24;;;;;;;4.68;4.28;;;24.80;99.90;;;;;;5095468;28;20055;-46
2022/08/09 06:24:50;;;;;;;4.97;3.90;;;24.60;99.90;;;;;;5095642;28;20047;-46
2022/08/09 06:27:15;;;;;;;6.45;3.40;;;24.30;99.90;;;;;;5095066;28;20131;-46
2022/08/09 06:29:41;;;;;;;7.53;4.20;;;24.60;99.90;;;;;;5094896;28;20362;-50
2022/08/09 06:32:07;;;;;;;5.93;3.83;;;24.10;99.90;;;;;;5093922;28;20086;-45
2022/08/09 06:34:32;;;;;;;4.82;4.07;;;24.60;99.90;;;;;;5094992;28;20512;-48
2022/08/09 06:36:58;;;;;;;5.32;3.72;;;25.10;99.90;;;;;;5094876;28;20051;-48
2022/08/09 06:39:23;;;;;;;4.40;3.55;;;24.80;99.90;;;;;;5094852;28;20040;-49
2022/08/09 06:41:49;;;;;;;4.00;3.40;;;25.50;99.90;;;;;;5094573;28;20044;-47
2022/08/09 06:44:14;;;;;;;3.67;3.00;;;25.80;99.90;;;;;;5094893;28;20439;-47
2022/08/09 06:46:40;;;;;;;3.40;3.10;;;25.90;99.90;;;;;;5094799;28;20040;-50
2022/08/09 06:49:06;;;;;;;5.28;3.00;;;25.60;99.90;;;;;;5094749;28;20115;-48
2022/08/09 06:51:34;;;;;;;4.57;3.25;;;25.50;99.90;;;;;;5094817;28;20462;-47
2022/08/09 06:53:59;;;;;;;5.50;2.75;;;25.90;99.90;;;;;;5094769;28;20058;-50
2022/08/09 06:56:25;;;;;;;5.40;2.90;;;25.90;99.90;;;;;;5094616;28;20110;-46
2022/08/09 06:58:51;;;;;;;2.95;2.60;;;25.30;99.90;;;;;;5094658;28;20148;-46
2022/08/09 07:01:16;;;;;;;3.65;2.58;;;25.70;99.90;;;;;;5093804;28;20036;-46
2022/08/09 07:03:42;;;;;;;3.28;2.17;;;25.70;99.90;;;;;;5094449;28;20048;-48
2022/08/09 07:06:07;;;;;;;2.53;1.90;;;25.30;99.90;;;;;;5092995;28;20040;-48
2022/08/09 07:08:33;;;;;;;3.10;1.90;;;24.90;99.90;;;;;;5094418;28;20085;-46
2022/08/09 07:11:01;;;;;;;5.22;2.00;;;24.80;99.90;;;;;;5094179;28;20036;-48
2022/08/09 07:13:27;;;;;;;2.53;1.63;;;24.20;99.90;;;;;;5094351;28;20118;-50
2022/08/09 07:15:53;;;;;;;2.08;1.40;;;24.20;99.90;;;;;;5094271;28;20128;-48
2022/08/09 07:18:18;;;;;;;2.63;1.33;;;24.40;99.90;;;;;;5093056;28;20047;-51
2022/08/09 07:20:44;;;;;;;2.28;1.23;;;24.30;99.90;;;;;;5094313;28;20039;-49
2022/08/09 07:23:11;;;;;;;1.92;1.30;;;24.60;99.90;;;;;;5094109;28;20069;-50
2022/08/09 07:25:36;;;;;;;1.95;1.50;;;24.30;99.90;;;;;;5093902;28;20039;-50
2022/08/09 07:28:02;;;;;;;3.10;1.58;;;23.90;99.90;;;;;;5094256;28;20047;-48
2022/08/09 07:30:28;;;;;;;3.15;1.65;;;24.00;99.90;;;;;;5094130;28;20115;-50
2022/08/09 07:32:53;;;;;;;2.63;1.42;;;23.40;99.90;;;;;;5092607;28;20067;-48
2022/08/09 07:35:19;;;;;;;1.95;1.17;;;23.30;99.90;;;;;;5093899;28;20059;-45
2022/08/09 07:37:44;;;;;;;2.15;1.52;;;23.00;99.90;;;;;;5093787;28;20036;-47
2022/08/09 07:40:16;;;;;;;2.40;1.50;;;22.30;99.90;;;;;;5093281;28;20123;-45
2022/08/09 07:42:57;;;;;;;3.40;1.45;;;22.10;99.90;;;;;;5093832;28;20132;-49
2022/08/09 07:45:25;;;;;;;2.08;1.52;;;21.70;99.90;;;;;;5093755;28;20047;-47
2022/08/09 07:47:52;;;;;;;3.83;1.42;;;21.30;99.90;;;;;;5093503;28;20486;-46
2022/08/09 07:50:19;;;;;;;1.75;1.23;;;21.10;99.90;;;;;;5093570;28;20048;-45
2022/08/09 07:52:45;;;;;;;;;;;20.90;99.90;;;;;;5094236;28;20039;-47
2022/08/09 07:55:10;;;;;;;3.03;1.60;;;20.90;99.90;;;;;;5093533;28;19920;-47
2022/08/09 07:57:36;;;;;;;3.45;1.30;;;21.00;99.90;;;;;;5093440;28;20135;-50
2022/08/09 08:00:04;;;;;;;3.80;1.45;;;21.00;99.90;;;;;;5093291;28;20040;-47
2022/08/09 08:02:30;;;;;;;3.35;1.77;;;;;;;;;;5093361;28;20039;-50
2022/08/09 08:04:56;;;;;;;3.15;1.50;;;;;;;;;;5093679;28;20382;-47
2022/08/09 08:07:21;;;;;;;1.92;1.40;;;21.10;99.90;;;;;;5092949;28;20039;-47
2022/08/09 08:09:47;;;;;;;2.70;1.50;;;21.20;99.90;;;;;;5093225;28;20507;-47
2022/08/09 08:12:12;;;;;;;3.88;1.52;;;21.30;99.90;;;;;;5091616;28;20481;-47
2022/08/09 08:14:38;;;;;;;3.42;1.70;;;21.30;99.90;;;;;;5093079;28;20040;-44
2022/08/09 08:17:03;;;;;;;3.08;1.60;;;21.40;99.90;;;;;;5093017;28;20048;-48
2022/08/09 08:19:29;;;;;;;2.72;1.70;;;21.40;99.90;;;;;;5092838;28;20051;-46
2022/08/09 08:21:55;;;;;;;2.08;1.20;;;21.40;99.90;;;;;;5091805;28;20375;-45
2022/08/09 08:24:21;;;;;;;2.58;1.23;;;21.70;99.90;;;;;;5093094;28;20051;-48
2022/08/09 08:26:46;;;;;;;2.75;1.10;;;21.50;99.90;;;;;;5092834;28;20039;-45
2022/08/09 08:29:12;;;;;;;1.42;1.17;;;21.50;99.90;;;;;;5092559;28;20040;-48
2022/08/09 08:31:38;;;;;;;2.25;1.60;;;21.70;99.90;;;;;;5092891;28;20078;-46
2022/08/09 08:34:04;;;;;;;2.22;1.35;;;21.50;99.90;;;;;;5092784;28;20059;-47
2022/08/09 08:36:29;;;;;;;2.33;1.45;;;21.60;99.90;;;;;;5092725;28;20051;-51
2022/08/09 08:38:55;;;;;;;1.92;1.13;;;21.60;99.90;;;;;;5092799;28;20443;-48
2022/08/09 08:41:22;;;;;;;3.75;1.30;;;21.60;99.90;;;;;;5092537;28;20055;-47
2022/08/09 08:43:48;;;;;;;2.63;1.23;;;21.70;99.90;;;;;;5093163;28;20494;-50
2022/08/09 08:46:19;;;;;;;1.65;1.02;;;21.80;99.90;;;;;;5093087;28;20324;-48
2022/08/09 08:48:46;;;;;;;1.50;1.13;;;22.10;99.90;;;;;;5093162;28;20067;-46
2022/08/09 08:51:12;;;;;;;1.93;1.30;;;22.30;99.90;;;;;;5092974;28;20059;-47
2022/08/09 08:53:38;;;;;;;2.35;1.10;;;22.20;99.90;;;;;;5091618;28;20039;-49
2022/08/09 08:56:06;;;;;;;2.75;1.08;;;22.30;99.90;;;;;;5092979;28;20119;-47
2022/08/09 08:58:32;;;;;;;2.03;1.00;;;22.50;99.90;;;;;;5092969;28;20040;-49
2022/08/09 09:01:02;;;;;;;1.10;0.70;;;22.60;99.90;;;;;;5093350;28;20048;-48
2022/08/09 09:03:34;;;;;;;2.65;0.90;;;22.70;99.90;;;;;;5092751;28;20463;-51
2022/08/09 09:06:02;;;;;;;2.25;1.10;;;22.60;99.90;;;;;;5092953;28;20772;-49
2022/08/09 09:08:33;;;;;;;0.80;0.70;;;22.60;99.90;;;;;;5093216;28;20040;-49
2022/08/09 09:11:04;;;;;;;1.48;0.73;;;22.30;99.90;;;;;;5092962;28;20047;-50
2022/08/09 09:13:38;;;;;;;1.05;0.70;;;22.40;99.90;;;;;;5092872;28;20040;-49
2022/08/09 09:16:04;;;;;;;1.70;0.70;;;22.70;99.90;;;;;;5092608;28;20556;-49
2022/08/09 09:18:30;;;;;;;2.42;1.00;;;22.70;99.90;;;;;;5092842;28;20173;-50
2022/08/09 09:20:56;;;;;;;1.88;0.82;;;22.60;99.90;;;;;;5091429;28;20036;-46
2022/08/09 09:23:43;;;;;;;1.92;0.80;;;22.50;99.90;;;;;;5092719;28;20036;-50
2022/08/09 09:26:10;;;;;;;2.95;0.95;;;22.50;99.90;;;;;;5092565;28;20115;-48
2022/08/09 09:28:36;;;;;;;2.25;1.13;;;22.50;99.90;;;;;;5092645;28;20162;-48
2022/08/09 09:31:04;;;;;;;2.20;0.80;;;22.60;99.90;;;;;;5092729;28;20162;-47
2022/08/09 09:33:36;;;;;;;1.83;0.90;;;22.50;99.90;;;;;;5092801;28;20055;-48
2022/08/09 09:36:03;;;;;;;0.95;0.90;;;22.90;99.90;;;;;;5092750;28;20046;-48
2022/08/09 09:38:44;;;;;;;2.92;0.80;;;22.80;99.90;;;;;;5092657;28;20040;-47
2022/08/09 09:41:11;;;;;;;2.15;0.70;;;22.80;99.90;;;;;;5092851;28;20080;-48
2022/08/09 09:43:37;;;;;;;1.15;0.70;;;22.90;99.90;;;;;;5096962;28;20044;-48
2022/08/09 09:46:02;;;;;;;1.38;0.70;;;23.20;99.90;;;;;;5096843;28;20401;-47
2022/08/09 09:48:29;;;;;;;1.67;0.70;;;23.00;99.90;;;;;;5095394;28;20051;-51
2022/08/09 09:50:55;;;;;;;1.25;0.80;;;23.20;99.90;;;;;;5096676;28;20032;-51
2022/08/09 09:53:23;;;;;;;1.08;0.80;;;23.20;99.90;;;;;;5096479;28;20040;-49
2022/08/09 09:55:54;;;;;;;2.28;0.80;;;23.20;99.90;;;;;;5096450;28;20527;-50
2022/08/09 09:58:20;;;;;;;1.23;0.85;;;23.10;99.90;;;;;;5096497;28;20411;-50
2022/08/09 10:00:47;;;;;;;2.38;0.80;;;23.20;99.90;;;;;;5096451;28;20040;-51
2022/08/09 10:03:13;;;;;;;1.27;0.70;;;22.90;99.90;;;;;;5096324;28;20489;-49
2022/08/09 10:06:08;;;;;;;4.70;0.90;;;23.10;99.90;;;;;;5096356;28;20036;-49
2022/08/09 10:08:34;;;;;;;1.10;0.65;;;23.10;99.90;;;;;;5082985;28;20055;-48
2022/08/09 10:10:59;;;;;;;1.40;0.80;;;23.20;99.90;;;;;;5096318;28;20162;-48
2022/08/09 10:13:36;;;;;;;2.55;0.75;;;23.20;99.90;;;;;;5096164;28;20044;-51
2022/08/09 10:16:02;;;;;;;2.65;0.80;;;23.20;99.90;;;;;;5096129;28;20040;-47
2022/08/09 10:18:28;;;;;;;1.38;0.70;;;23.10;99.90;;;;;;5095910;28;20097;-45
2022/08/09 10:20:53;;;;;;;0.52;0.50;;;23.40;99.90;;;;;;5096113;28;20036;-48
2022/08/09 10:23:21;;;;;;;1.05;0.60;;;23.40;99.90;;;;;;5096058;28;20040;-48
2022/08/09 10:25:49;;;;;;;2.28;1.05;;;23.60;98.80;;;;;;5095891;28;20050;-46
2022/08/09 10:28:14;;;;;;;;;;;23.60;99.20;;;;;;5096265;28;20044;-49
2022/08/09 10:30:41;;;;;;;3.20;0.70;;;23.40;99.70;;;;;;5095820;28;19919;-46
2022/08/09 10:33:07;;;;;;;0.68;0.60;;;23.50;99.90;;;;;;5095662;28;20077;-46
2022/08/09 10:35:34;;;;;;;0.70;0.40;;;23.90;99.80;;;;;;5095903;28;20497;-47
2022/08/09 10:38:00;;;;;;;1.33;0.70;;;24.00;98.90;;;;;;5095895;28;20044;-50
2022/08/09 10:40:27;;;;;;;0.85;0.70;;;24.20;99.60;;;;;;5095522;28;20071;-49
2022/08/09 10:42:54;;;;;;;0.93;0.60;;;24.20;99.10;;;;;;5095737;28;20529;-50
2022/08/09 10:45:21;;;;;;;0.93;0.60;;;24.20;99.10;;;;;;5095775;28;20051;-47
2022/08/09 10:48:16;;;;;;;1.67;0.73;;;24.20;99.60;;;;;;5095771;28;20083;-49
2022/08/09 10:51:08;;;;;;;0.88;0.68;;;24.20;99.30;;;;;;5088770;28;20059;-51
2022/08/09 10:53:50;;;;;;;1.55;0.80;;;24.50;99.50;;;;;;5095616;28;20040;-49
2022/08/09 10:56:18;;;;;;;1.48;0.70;;;24.50;98.90;;;;;;5095603;28;20567;-46
2022/08/09 10:58:44;;;;;;;1.20;0.60;;;24.50;98.10;;;;;;5095729;28;20043;-49
2022/08/09 11:01:31;;;;;;;1.52;0.63;;;24.60;97.70;;;;;;5095620;28;20122;-52
2022/08/09 11:04:13;;;;;;;1.10;0.68;;;24.50;97.80;;;;;;5095611;28;20048;-46
2022/08/09 11:06:43;;;;;;;1.02;0.70;;;24.50;96.70;;;;;;5094149;28;20440;-46
2022/08/09 11:09:10;;;;;;;2.80;0.82;;;24.40;97.40;;;;;;5095526;28;20405;-45
2022/08/09 11:11:54;;;;;;;1.10;0.63;;;24.80;97.60;;;;;;5095640;28;20089;-48
2022/08/09 11:14:47;;;;;;;1.15;0.70;;;24.70;97.20;;;;;;5095350;28;20079;-49
2022/08/09 11:17:13;;;;;;;0.68;0.60;;;24.80;97.70;;;;;;5088820;28;20052;-50
2022/08/09 11:19:57;;;;;;;1.45;0.50;;;24.90;96.60;;;;;;5095298;28;20085;-48
2022/08/09 11:22:51;;;;;;;1.50;0.70;;;24.60;96.30;;;;;;5095235;28;20076;-45
2022/08/09 11:25:21;;;;;;;1.67;0.65;;;24.80;96.70;;;;;;5092695;28;20114;-47
2022/08/09 11:27:53;;;;;;;0.95;0.90;;;25.00;97.10;;;;;;5093720;28;20127;-46
2022/08/09 11:30:22;;;;;;;5.10;1.02;;;25.00;97.30;;;;;;5095094;28;20044;-48
2022/08/09 11:32:52;;;;;;;0.80;0.60;;;25.10;96.30;;;;;;5094997;28;20036;-46
2022/08/09 11:35:26;;;;;;;0.85;0.60;;;25.00;95.40;;;;;;5095244;28;20040;-47
2022/08/09 11:37:55;;;;;;;0.75;0.60;;;24.80;95.80;;;;;;5094609;28;20036;-46
2022/08/09 11:40:30;;;;;;;0.55;0.50;;;24.80;95.20;;;;;;5094564;28;20134;-50
2022/08/09 11:42:58;;;;;;;1.85;0.70;;;24.90;95.90;;;;;;5094891;28;20067;-47
2022/08/09 11:45:37;;;;;;;0.65;0.50;;;25.00;95.90;;;;;;5094623;28;20080;-50
2022/08/09 11:48:20;;;;;;;1.98;0.60;;;25.00;96.30;;;;;;5094664;28;20075;-50
2022/08/09 11:51:01;;;;;;;0.70;0.70;;;25.00;95.10;;;;;;5093595;28;20051;-49
2022/08/09 11:53:31;;;;;;;1.98;0.70;;;24.60;95.10;;;;;;5094540;28;20132;-49
2022/08/09 11:56:13;;;;;;;1.02;0.70;;;24.70;95.30;;;;;;5076428;28;20048;-50
2022/08/09 11:58:52;;;;;;;1.02;0.68;;;25.00;95.10;;;;;;5094305;28;20427;-49
2022/08/09 12:01:30;;;;;;;0.82;0.60;;;25.10;94.40;;;;;;5094471;28;20051;-47
2022/08/09 12:04:02;;;;;;;0.80;0.60;;;25.20;94.20;;;;;;5093837;28;20490;-48
2022/08/09 12:06:27;;;;;;;1.48;0.60;;;25.10;94.90;;;;;;5094325;28;20127;-51
2022/08/09 12:08:55;;;;;;;0.60;0.50;;;25.30;94.50;;;;;;5094249;28;20170;-48
2022/08/09 12:11:24;;;;;;;3.58;0.88;;;25.30;94.10;;;;;;5094291;28;20044;-48
2022/08/09 12:14:13;;;;;;;1.20;0.80;;;25.40;94.00;;;;;;5094179;28;20048;-47
2022/08/09 12:16:41;;;;;;;1.20;0.80;;;25.60;94.20;;;;;;5092953;28;20158;-47
2022/08/09 12:19:08;;;;;;;1.35;0.70;;;25.40;94.40;;;;;;5094124;28;20047;-46
2022/08/09 12:21:39;;;;;;;0.57;0.45;;;25.40;94.20;;;;;;5093779;28;20040;-50
2022/08/09 12:24:07;;;;;;;0.60;0.60;;;25.40;93.50;;;;;;5093993;28;20040;-47
2022/08/09 12:26:44;;;;;;;0.82;0.60;;;25.40;93.50;;;;;;5093883;28;20036;-47
2022/08/09 12:29:17;;;;;;;0.50;0.50;;;25.50;93.30;;;;;;5093916;28;20374;-47
2022/08/09 12:31:45;;;;;;;0.88;0.60;;;25.30;92.90;;;;;;5093616;28;20044;-47
2022/08/09 12:34:11;;;;;;;1.95;0.63;;;25.30;92.60;;;;;;5093627;28;20478;-51
2022/08/09 12:36:54;;;;;;;0.80;0.57;;;25.30;92.40;;;;;;5093877;28;20063;-48
2022/08/09 12:39:20;;;;;;;1.00;0.70;;;25.40;92.20;;;;;;5093872;28;20394;-47
2022/08/09 12:41:46;;;;;;;0.57;0.57;;;25.60;91.70;;;;;;5093273;28;20056;-48
2022/08/09 12:44:12;;;;;;;0.50;0.50;;;25.60;91.50;;;;;;5094094;28;20098;-50
2022/08/09 12:46:43;;;;;;;0.73;0.52;;;25.80;91.50;;;;;;5093522;28;20044;-49
2022/08/09 12:49:09;;;;;;;1.15;0.60;;;25.50;88.80;;;;;;5093771;28;20040;-48
2022/08/09 12:51:35;;;;;;;1.25;0.50;;;25.70;89.70;;;;;;5093840;28;20508;-48
2022/08/09 12:54:03;;;;;;;1.63;0.52;;;25.60;90.10;;;;;;5093533;28;20067;-50